sensor_id;sensor_type;location;lat;lon;timestamp;P1;durP1;ratioP1;P2;durP2;ratioP2
23300;SDS011;11819;51.394;12.340;2023-04-03T00:00:20;9.07;;;2.33;;
23300;SDS011;11819;51.394;12.340;2023-04-03T00:02:46;6.27;;;2.00;;
23300;SDS011;11819;51.394;12.340;2023-04-03T00:05:13;6.43;;;2.20;;
23300;SDS011;11819;51.394;12.340;2023-04-03T00:07:39;9.77;;;2.20;;
23300;SDS011;11819;51.394;12.340;2023-04-03T00:10:05;4.57;;;1.83;;
23300;SDS011;11819;51.394;12.340;2023-04-03T00:12:31;5.77;;;1.93;;
23300;SDS011;11819;51.394;12.340;2023-04-03T00:14:57;4.20;;;2.10;;
23300;SDS011;11819;51.394;12.340;2023-04-03T00:17:22;6.43;;;2.20;;
23300;SDS011;11819;51.394;12.340;2023-04-03T00:19:48;7.80;;;2.17;;
23300;SDS011;11819;51.394;12.340;2023-04-03T00:22:14;5.93;;;2.30;;
23300;SDS011;11819;51.394;12.340;2023-04-03T00:24:40;5.50;;;2.10;;
23300;SDS011;11819;51.394;12.340;2023-04-03T00:27:05;3.23;;;1.70;;
23300;SDS011;11819;51.394;12.340;2023-04-03T00:29:31;5.00;;;1.80;;
23300;SDS011;11819;51.394;12.340;2023-04-03T00:31:57;5.33;;;2.07;;
23300;SDS011;11819;51.394;12.340;2023-04-03T00:34:22;5.60;;;2.27;;
23300;SDS011;11819;51.394;12.340;2023-04-03T00:36:51;9.00;;;2.00;;
23300;SDS011;11819;51.394;12.340;2023-04-03T00:39:16;7.17;;;1.97;;
23300;SDS011;11819;51.394;12.340;2023-04-03T00:41:42;5.87;;;2.20;;
23300;SDS011;11819;51.394;12.340;2023-04-03T00:47:03;4.93;;;1.77;;
23300;SDS011;11819;51.394;12.340;2023-04-03T00:49:30;4.73;;;2.03;;
23300;SDS011;11819;51.394;12.340;2023-04-03T00:51:56;6.27;;;2.20;;
23300;SDS011;11819;51.394;12.340;2023-04-03T00:54:24;6.17;;;2.00;;
23300;SDS011;11819;51.394;12.340;2023-04-03T00:56:51;5.07;;;2.27;;
23300;SDS011;11819;51.394;12.340;2023-04-03T00:59:22;7.33;;;2.27;;
23300;SDS011;11819;51.394;12.340;2023-04-03T01:01:52;5.03;;;2.10;;
23300;SDS011;11819;51.394;12.340;2023-04-03T01:04:31;5.80;;;2.13;;
23300;SDS011;11819;51.394;12.340;2023-04-03T01:07:04;5.87;;;2.23;;
23300;SDS011;11819;51.394;12.340;2023-04-03T01:09:33;7.60;;;2.30;;
23300;SDS011;11819;51.394;12.340;2023-04-03T01:12:17;6.77;;;1.93;;
23300;SDS011;11819;51.394;12.340;2023-04-03T01:14:48;4.47;;;2.00;;
23300;SDS011;11819;51.394;12.340;2023-04-03T01:17:29;7.23;;;1.77;;
23300;SDS011;11819;51.394;12.340;2023-04-03T01:25:28;6.73;;;1.67;;
23300;SDS011;11819;51.394;12.340;2023-04-03T01:27:54;7.63;;;2.10;;
23300;SDS011;11819;51.394;12.340;2023-04-03T01:30:21;6.87;;;2.00;;
23300;SDS011;11819;51.394;12.340;2023-04-03T01:32:53;5.07;;;2.23;;
23300;SDS011;11819;51.394;12.340;2023-04-03T01:35:19;4.07;;;1.70;;
23300;SDS011;11819;51.394;12.340;2023-04-03T01:37:45;8.33;;;2.30;;
23300;SDS011;11819;51.394;12.340;2023-04-03T01:40:10;8.27;;;1.97;;
23300;SDS011;11819;51.394;12.340;2023-04-03T01:42:37;5.97;;;2.07;;
23300;SDS011;11819;51.394;12.340;2023-04-03T01:45:03;6.83;;;2.10;;
23300;SDS011;11819;51.394;12.340;2023-04-03T01:47:30;5.67;;;2.20;;
23300;SDS011;11819;51.394;12.340;2023-04-03T01:49:55;8.17;;;3.03;;
23300;SDS011;11819;51.394;12.340;2023-04-03T01:52:21;5.77;;;2.00;;
23300;SDS011;11819;51.394;12.340;2023-04-03T01:54:47;6.20;;;1.87;;
23300;SDS011;11819;51.394;12.340;2023-04-03T01:57:12;4.23;;;1.87;;
23300;SDS011;11819;51.394;12.340;2023-04-03T01:59:40;5.77;;;2.03;;
23300;SDS011;11819;51.394;12.340;2023-04-03T02:02:06;6.53;;;2.40;;
23300;SDS011;11819;51.394;12.340;2023-04-03T02:04:33;6.33;;;2.30;;
23300;SDS011;11819;51.394;12.340;2023-04-03T02:06:58;8.33;;;2.17;;
23300;SDS011;11819;51.394;12.340;2023-04-03T02:09:24;6.50;;;2.20;;
23300;SDS011;11819;51.394;12.340;2023-04-03T02:11:51;7.23;;;2.20;;
23300;SDS011;11819;51.394;12.340;2023-04-03T02:14:17;9.03;;;1.97;;
23300;SDS011;11819;51.394;12.340;2023-04-03T02:16:44;11.07;;;2.30;;
23300;SDS011;11819;51.394;12.340;2023-04-03T02:19:10;5.40;;;1.70;;
23300;SDS011;11819;51.394;12.340;2023-04-03T02:21:36;7.97;;;2.27;;
23300;SDS011;11819;51.394;12.340;2023-04-03T02:24:01;5.83;;;2.03;;
23300;SDS011;11819;51.394;12.340;2023-04-03T02:26:27;5.30;;;2.10;;
23300;SDS011;11819;51.394;12.340;2023-04-03T02:28:53;5.17;;;2.00;;
23300;SDS011;11819;51.394;12.340;2023-04-03T02:31:18;6.00;;;3.03;;
23300;SDS011;11819;51.394;12.340;2023-04-03T02:33:45;3.77;;;1.87;;
23300;SDS011;11819;51.394;12.340;2023-04-03T02:36:13;3.67;;;1.90;;
23300;SDS011;11819;51.394;12.340;2023-04-03T02:38:43;7.67;;;2.10;;
23300;SDS011;11819;51.394;12.340;2023-04-03T02:41:10;4.67;;;2.07;;
23300;SDS011;11819;51.394;12.340;2023-04-03T02:43:37;6.83;;;2.00;;
23300;SDS011;11819;51.394;12.340;2023-04-03T02:46:04;6.40;;;1.80;;
23300;SDS011;11819;51.394;12.340;2023-04-03T02:48:31;5.63;;;2.27;;
23300;SDS011;11819;51.394;12.340;2023-04-03T02:50:56;7.40;;;2.33;;
23300;SDS011;11819;51.394;12.340;2023-04-03T02:53:22;5.83;;;1.90;;
23300;SDS011;11819;51.394;12.340;2023-04-03T02:55:49;7.10;;;1.97;;
23300;SDS011;11819;51.394;12.340;2023-04-03T02:58:15;4.30;;;2.03;;
23300;SDS011;11819;51.394;12.340;2023-04-03T03:00:41;6.93;;;2.13;;
23300;SDS011;11819;51.394;12.340;2023-04-03T03:03:07;6.63;;;2.33;;
23300;SDS011;11819;51.394;12.340;2023-04-03T03:05:33;8.70;;;2.20;;
23300;SDS011;11819;51.394;12.340;2023-04-03T03:07:59;5.53;;;2.13;;
23300;SDS011;11819;51.394;12.340;2023-04-03T03:10:24;8.60;;;2.60;;
23300;SDS011;11819;51.394;12.340;2023-04-03T03:12:50;6.43;;;2.40;;
23300;SDS011;11819;51.394;12.340;2023-04-03T03:15:16;8.10;;;2.40;;
23300;SDS011;11819;51.394;12.340;2023-04-03T03:17:42;6.47;;;2.00;;
23300;SDS011;11819;51.394;12.340;2023-04-03T03:20:08;5.20;;;1.90;;
23300;SDS011;11819;51.394;12.340;2023-04-03T03:22:35;6.57;;;1.97;;
23300;SDS011;11819;51.394;12.340;2023-04-03T03:25:00;7.27;;;2.43;;
23300;SDS011;11819;51.394;12.340;2023-04-03T03:27:27;5.93;;;1.80;;
23300;SDS011;11819;51.394;12.340;2023-04-03T03:29:53;4.33;;;1.83;;
23300;SDS011;11819;51.394;12.340;2023-04-03T03:32:19;5.27;;;2.00;;
23300;SDS011;11819;51.394;12.340;2023-04-03T03:34:45;5.27;;;1.70;;
23300;SDS011;11819;51.394;12.340;2023-04-03T03:37:12;6.93;;;2.20;;
23300;SDS011;11819;51.394;12.340;2023-04-03T03:39:37;10.00;;;2.40;;
23300;SDS011;11819;51.394;12.340;2023-04-03T03:42:03;5.77;;;2.10;;
23300;SDS011;11819;51.394;12.340;2023-04-03T03:44:29;5.50;;;1.97;;
23300;SDS011;11819;51.394;12.340;2023-04-03T03:46:55;5.67;;;2.20;;
23300;SDS011;11819;51.394;12.340;2023-04-03T03:49:21;7.33;;;2.20;;
23300;SDS011;11819;51.394;12.340;2023-04-03T03:51:47;5.63;;;2.20;;
23300;SDS011;11819;51.394;12.340;2023-04-03T03:54:13;7.43;;;2.10;;
23300;SDS011;11819;51.394;12.340;2023-04-03T03:56:39;5.00;;;2.07;;
23300;SDS011;11819;51.394;12.340;2023-04-03T03:59:06;9.70;;;2.00;;
23300;SDS011;11819;51.394;12.340;2023-04-03T04:01:32;5.57;;;1.93;;
23300;SDS011;11819;51.394;12.340;2023-04-03T04:03:58;7.73;;;2.13;;
23300;SDS011;11819;51.394;12.340;2023-04-03T04:06:28;6.77;;;2.27;;
23300;SDS011;11819;51.394;12.340;2023-04-03T04:08:57;5.60;;;2.20;;
23300;SDS011;11819;51.394;12.340;2023-04-03T04:11:23;5.63;;;2.37;;
23300;SDS011;11819;51.394;12.340;2023-04-03T04:13:51;7.27;;;2.90;;
23300;SDS011;11819;51.394;12.340;2023-04-03T04:16:19;8.23;;;2.13;;
23300;SDS011;11819;51.394;12.340;2023-04-03T04:18:45;11.20;;;2.57;;
23300;SDS011;11819;51.394;12.340;2023-04-03T04:21:11;6.63;;;2.23;;
23300;SDS011;11819;51.394;12.340;2023-04-03T04:23:38;5.13;;;2.23;;
23300;SDS011;11819;51.394;12.340;2023-04-03T04:26:03;6.03;;;2.20;;
23300;SDS011;11819;51.394;12.340;2023-04-03T04:28:36;7.67;;;2.07;;
23300;SDS011;11819;51.394;12.340;2023-04-03T04:31:03;5.00;;;2.27;;
23300;SDS011;11819;51.394;12.340;2023-04-03T04:33:30;7.27;;;2.30;;
23300;SDS011;11819;51.394;12.340;2023-04-03T04:35:58;5.33;;;2.10;;
23300;SDS011;11819;51.394;12.340;2023-04-03T04:38:23;7.00;;;2.20;;
23300;SDS011;11819;51.394;12.340;2023-04-03T04:40:52;5.97;;;2.20;;
23300;SDS011;11819;51.394;12.340;2023-04-03T04:43:19;5.50;;;2.53;;
23300;SDS011;11819;51.394;12.340;2023-04-03T04:45:48;7.20;;;2.30;;
23300;SDS011;11819;51.394;12.340;2023-04-03T04:48:16;8.40;;;2.67;;
23300;SDS011;11819;51.394;12.340;2023-04-03T04:50:42;5.93;;;2.43;;
23300;SDS011;11819;51.394;12.340;2023-04-03T04:53:08;5.17;;;2.40;;
23300;SDS011;11819;51.394;12.340;2023-04-03T04:55:33;5.80;;;2.13;;
23300;SDS011;11819;51.394;12.340;2023-04-03T04:57:59;7.50;;;2.47;;
23300;SDS011;11819;51.394;12.340;2023-04-03T05:00:26;8.53;;;2.03;;
23300;SDS011;11819;51.394;12.340;2023-04-03T05:02:54;5.27;;;2.20;;
23300;SDS011;11819;51.394;12.340;2023-04-03T05:05:20;5.40;;;2.07;;
23300;SDS011;11819;51.394;12.340;2023-04-03T05:07:46;8.57;;;2.30;;
23300;SDS011;11819;51.394;12.340;2023-04-03T05:10:12;6.03;;;2.50;;
23300;SDS011;11819;51.394;12.340;2023-04-03T05:12:38;3.50;;;1.77;;
23300;SDS011;11819;51.394;12.340;2023-04-03T05:15:04;5.60;;;2.07;;
23300;SDS011;11819;51.394;12.340;2023-04-03T05:17:31;6.67;;;2.10;;
23300;SDS011;11819;51.394;12.340;2023-04-03T05:19:57;5.17;;;2.10;;
23300;SDS011;11819;51.394;12.340;2023-04-03T05:22:26;8.03;;;2.27;;
23300;SDS011;11819;51.394;12.340;2023-04-03T05:24:57;4.87;;;1.73;;
23300;SDS011;11819;51.394;12.340;2023-04-03T05:27:25;5.27;;;1.83;;
23300;SDS011;11819;51.394;12.340;2023-04-03T05:29:54;4.57;;;1.97;;
23300;SDS011;11819;51.394;12.340;2023-04-03T05:32:22;6.47;;;1.90;;
23300;SDS011;11819;51.394;12.340;2023-04-03T05:34:55;6.03;;;1.90;;
23300;SDS011;11819;51.394;12.340;2023-04-03T05:37:21;6.93;;;2.87;;
23300;SDS011;11819;51.394;12.340;2023-04-03T05:39:47;4.70;;;1.80;;
23300;SDS011;11819;51.394;12.340;2023-04-03T05:42:13;7.03;;;2.10;;
23300;SDS011;11819;51.394;12.340;2023-04-03T05:44:39;6.70;;;2.50;;
23300;SDS011;11819;51.394;12.340;2023-04-03T05:47:06;7.03;;;2.53;;
23300;SDS011;11819;51.394;12.340;2023-04-03T05:49:32;4.13;;;1.63;;
23300;SDS011;11819;51.394;12.340;2023-04-03T05:51:57;5.93;;;1.83;;
23300;SDS011;11819;51.394;12.340;2023-04-03T05:54:27;6.83;;;2.23;;
23300;SDS011;11819;51.394;12.340;2023-04-03T05:57:02;5.97;;;1.70;;
23300;SDS011;11819;51.394;12.340;2023-04-03T05:59:28;4.60;;;1.53;;
23300;SDS011;11819;51.394;12.340;2023-04-03T06:01:57;5.20;;;1.90;;
23300;SDS011;11819;51.394;12.340;2023-04-03T06:04:24;3.50;;;1.60;;
23300;SDS011;11819;51.394;12.340;2023-04-03T06:06:52;7.37;;;2.00;;
23300;SDS011;11819;51.394;12.340;2023-04-03T06:09:22;5.40;;;2.07;;
23300;SDS011;11819;51.394;12.340;2023-04-03T06:11:51;5.03;;;2.10;;
23300;SDS011;11819;51.394;12.340;2023-04-03T06:14:18;7.37;;;2.37;;
23300;SDS011;11819;51.394;12.340;2023-04-03T06:16:44;5.33;;;1.93;;
23300;SDS011;11819;51.394;12.340;2023-04-03T06:19:11;6.10;;;2.20;;
23300;SDS011;11819;51.394;12.340;2023-04-03T06:21:41;5.87;;;1.60;;
23300;SDS011;11819;51.394;12.340;2023-04-03T06:24:09;7.50;;;1.93;;
23300;SDS011;11819;51.394;12.340;2023-04-03T06:26:41;5.90;;;1.97;;
23300;SDS011;11819;51.394;12.340;2023-04-03T06:29:07;8.60;;;1.90;;
23300;SDS011;11819;51.394;12.340;2023-04-03T06:31:33;5.50;;;1.80;;
23300;SDS011;11819;51.394;12.340;2023-04-03T06:34:01;6.63;;;1.83;;
23300;SDS011;11819;51.394;12.340;2023-04-03T06:36:27;7.67;;;2.30;;
23300;SDS011;11819;51.394;12.340;2023-04-03T06:38:53;5.33;;;1.60;;
23300;SDS011;11819;51.394;12.340;2023-04-03T06:41:20;5.70;;;2.10;;
23300;SDS011;11819;51.394;12.340;2023-04-03T06:43:46;8.83;;;2.57;;
23300;SDS011;11819;51.394;12.340;2023-04-03T06:46:13;7.90;;;1.60;;
23300;SDS011;11819;51.394;12.340;2023-04-03T06:48:43;5.63;;;1.80;;
23300;SDS011;11819;51.394;12.340;2023-04-03T06:51:13;4.77;;;1.60;;
23300;SDS011;11819;51.394;12.340;2023-04-03T06:53:47;5.13;;;1.90;;
23300;SDS011;11819;51.394;12.340;2023-04-03T06:56:13;5.03;;;2.20;;
23300;SDS011;11819;51.394;12.340;2023-04-03T06:58:40;4.53;;;1.93;;
23300;SDS011;11819;51.394;12.340;2023-04-03T07:01:05;7.03;;;2.00;;
23300;SDS011;11819;51.394;12.340;2023-04-03T07:03:32;4.07;;;1.67;;
23300;SDS011;11819;51.394;12.340;2023-04-03T07:05:57;8.17;;;2.20;;
23300;SDS011;11819;51.394;12.340;2023-04-03T07:08:23;4.93;;;1.80;;
23300;SDS011;11819;51.394;12.340;2023-04-03T07:10:51;6.23;;;1.67;;
23300;SDS011;11819;51.394;12.340;2023-04-03T07:13:16;2.80;;;1.10;;
23300;SDS011;11819;51.394;12.340;2023-04-03T07:15:43;5.63;;;1.53;;
23300;SDS011;11819;51.394;12.340;2023-04-03T07:18:09;4.17;;;1.53;;
23300;SDS011;11819;51.394;12.340;2023-04-03T07:20:34;5.57;;;1.83;;
23300;SDS011;11819;51.394;12.340;2023-04-03T07:23:00;7.77;;;1.80;;
23300;SDS011;11819;51.394;12.340;2023-04-03T07:25:27;3.43;;;1.83;;
23300;SDS011;11819;51.394;12.340;2023-04-03T07:27:53;3.07;;;1.57;;
23300;SDS011;11819;51.394;12.340;2023-04-03T07:30:19;4.57;;;1.63;;
23300;SDS011;11819;51.394;12.340;2023-04-03T07:32:45;6.33;;;1.40;;
23300;SDS011;11819;51.394;12.340;2023-04-03T07:35:11;2.23;;;1.47;;
23300;SDS011;11819;51.394;12.340;2023-04-03T07:37:37;3.77;;;1.13;;
23300;SDS011;11819;51.394;12.340;2023-04-03T07:40:03;2.77;;;1.30;;
23300;SDS011;11819;51.394;12.340;2023-04-03T07:42:30;3.17;;;1.47;;
23300;SDS011;11819;51.394;12.340;2023-04-03T07:44:56;5.07;;;1.47;;
23300;SDS011;11819;51.394;12.340;2023-04-03T07:47:22;6.43;;;1.90;;
23300;SDS011;11819;51.394;12.340;2023-04-03T07:49:48;5.30;;;2.10;;
23300;SDS011;11819;51.394;12.340;2023-04-03T07:52:13;4.07;;;1.77;;
23300;SDS011;11819;51.394;12.340;2023-04-03T07:54:42;4.00;;;1.50;;
23300;SDS011;11819;51.394;12.340;2023-04-03T07:57:08;4.93;;;1.77;;
23300;SDS011;11819;51.394;12.340;2023-04-03T07:59:33;5.83;;;1.70;;
23300;SDS011;11819;51.394;12.340;2023-04-03T08:01:59;5.50;;;1.87;;
23300;SDS011;11819;51.394;12.340;2023-04-03T08:04:25;7.73;;;2.47;;
23300;SDS011;11819;51.394;12.340;2023-04-03T08:06:51;5.27;;;1.77;;
23300;SDS011;11819;51.394;12.340;2023-04-03T08:09:18;6.00;;;1.77;;
23300;SDS011;11819;51.394;12.340;2023-04-03T08:11:44;4.00;;;1.67;;
23300;SDS011;11819;51.394;12.340;2023-04-03T08:14:10;6.67;;;2.10;;
23300;SDS011;11819;51.394;12.340;2023-04-03T08:16:45;6.63;;;1.83;;
23300;SDS011;11819;51.394;12.340;2023-04-03T08:19:12;6.00;;;2.07;;
23300;SDS011;11819;51.394;12.340;2023-04-03T08:21:41;3.23;;;2.20;;
23300;SDS011;11819;51.394;12.340;2023-04-03T08:24:07;5.53;;;2.20;;
23300;SDS011;11819;51.394;12.340;2023-04-03T08:26:34;6.20;;;2.07;;
23300;SDS011;11819;51.394;12.340;2023-04-03T08:29:00;4.10;;;2.10;;
23300;SDS011;11819;51.394;12.340;2023-04-03T08:31:26;4.77;;;1.90;;
23300;SDS011;11819;51.394;12.340;2023-04-03T08:33:52;4.97;;;2.17;;
23300;SDS011;11819;51.394;12.340;2023-04-03T08:36:21;7.03;;;2.50;;
23300;SDS011;11819;51.394;12.340;2023-04-03T08:38:52;4.53;;;2.30;;
23300;SDS011;11819;51.394;12.340;2023-04-03T08:41:27;5.30;;;2.50;;
23300;SDS011;11819;51.394;12.340;2023-04-03T08:49:36;6.03;;;2.33;;
23300;SDS011;11819;51.394;12.340;2023-04-03T08:52:18;5.63;;;2.60;;
23300;SDS011;11819;51.394;12.340;2023-04-03T08:57:46;3.73;;;2.33;;
23300;SDS011;11819;51.394;12.340;2023-04-03T09:00:19;7.37;;;2.43;;
23300;SDS011;11819;51.394;12.340;2023-04-03T09:02:48;5.93;;;1.83;;
23300;SDS011;11819;51.394;12.340;2023-04-03T09:06:00;4.63;;;1.93;;
23300;SDS011;11819;51.394;12.340;2023-04-03T09:10:49;4.87;;;1.77;;
23300;SDS011;11819;51.394;12.340;2023-04-03T09:13:29;3.83;;;1.90;;
23300;SDS011;11819;51.394;12.340;2023-04-03T09:16:02;3.13;;;1.57;;
23300;SDS011;11819;51.394;12.340;2023-04-03T09:18:43;3.33;;;1.57;;
23300;SDS011;11819;51.394;12.340;2023-04-03T09:26:19;3.30;;;1.70;;
23300;SDS011;11819;51.394;12.340;2023-04-03T09:28:51;4.93;;;1.90;;
23300;SDS011;11819;51.394;12.340;2023-04-03T09:31:25;4.47;;;1.93;;
23300;SDS011;11819;51.394;12.340;2023-04-03T09:34:14;4.10;;;2.10;;
23300;SDS011;11819;51.394;12.340;2023-04-03T09:36:51;3.40;;;1.70;;
23300;SDS011;11819;51.394;12.340;2023-04-03T09:39:22;4.37;;;2.20;;
23300;SDS011;11819;51.394;12.340;2023-04-03T09:42:00;6.50;;;2.10;;
23300;SDS011;11819;51.394;12.340;2023-04-03T09:52:39;4.77;;;2.03;;
23300;SDS011;11819;51.394;12.340;2023-04-03T09:55:16;3.67;;;1.80;;
23300;SDS011;11819;51.394;12.340;2023-04-03T09:57:53;4.30;;;2.00;;
23300;SDS011;11819;51.394;12.340;2023-04-03T10:00:21;3.17;;;1.93;;
23300;SDS011;11819;51.394;12.340;2023-04-03T10:02:51;2.40;;;1.67;;
23300;SDS011;11819;51.394;12.340;2023-04-03T10:07:50;5.93;;;1.80;;
23300;SDS011;11819;51.394;12.340;2023-04-03T10:12:45;4.47;;;2.07;;
23300;SDS011;11819;51.394;12.340;2023-04-03T10:15:15;7.43;;;2.10;;
23300;SDS011;11819;51.394;12.340;2023-04-03T10:18:00;4.37;;;1.80;;
23300;SDS011;11819;51.394;12.340;2023-04-03T10:23:14;7.60;;;2.00;;
23300;SDS011;11819;51.394;12.340;2023-04-03T10:36:32;4.00;;;2.40;;
23300;SDS011;11819;51.394;12.340;2023-04-03T10:51:11;3.63;;;2.07;;
23300;SDS011;11819;51.394;12.340;2023-04-03T10:54:18;3.70;;;2.07;;
23300;SDS011;11819;51.394;12.340;2023-04-03T10:56:52;7.23;;;2.30;;
23300;SDS011;11819;51.394;12.340;2023-04-03T11:04:44;6.33;;;2.40;;
23300;SDS011;11819;51.394;12.340;2023-04-03T11:07:23;6.00;;;2.20;;
23300;SDS011;11819;51.394;12.340;2023-04-03T11:09:55;3.83;;;2.03;;
23300;SDS011;11819;51.394;12.340;2023-04-03T11:15:05;6.87;;;2.23;;
23300;SDS011;11819;51.394;12.340;2023-04-03T11:17:38;4.10;;;1.70;;
23300;SDS011;11819;51.394;12.340;2023-04-03T11:22:54;5.37;;;2.10;;
23300;SDS011;11819;51.394;12.340;2023-04-03T11:25:25;6.67;;;2.40;;
23300;SDS011;11819;51.394;12.340;2023-04-03T11:27:58;6.73;;;2.97;;
23300;SDS011;11819;51.394;12.340;2023-04-03T11:30:33;5.90;;;2.57;;
23300;SDS011;11819;51.394;12.340;2023-04-03T11:36:01;5.17;;;2.40;;
23300;SDS011;11819;51.394;12.340;2023-04-03T11:38:43;6.97;;;3.23;;
23300;SDS011;11819;51.394;12.340;2023-04-03T11:41:12;3.90;;;2.33;;
23300;SDS011;11819;51.394;12.340;2023-04-03T11:43:42;5.47;;;2.50;;
23300;SDS011;11819;51.394;12.340;2023-04-03T12:05:48;4.33;;;2.03;;
23300;SDS011;11819;51.394;12.340;2023-04-03T12:08:24;3.63;;;2.05;;
23300;SDS011;11819;51.394;12.340;2023-04-03T12:29:53;6.27;;;2.43;;
23300;SDS011;11819;51.394;12.340;2023-04-03T12:32:23;5.13;;;2.40;;
23300;SDS011;11819;51.394;12.340;2023-04-03T12:35:02;6.63;;;2.10;;
23300;SDS011;11819;51.394;12.340;2023-04-03T12:47:42;4.40;;;1.97;;
23300;SDS011;11819;51.394;12.340;2023-04-03T12:50:20;4.13;;;2.40;;
23300;SDS011;11819;51.394;12.340;2023-04-03T12:52:57;6.03;;;2.83;;
23300;SDS011;11819;51.394;12.340;2023-04-03T12:55:39;6.22;;;2.13;;
23300;SDS011;11819;51.394;12.340;2023-04-03T13:01:11;4.10;;;2.28;;
23300;SDS011;11819;51.394;12.340;2023-04-03T13:03:42;5.33;;;2.47;;
23300;SDS011;11819;51.394;12.340;2023-04-03T13:06:37;6.82;;;2.65;;
23300;SDS011;11819;51.394;12.340;2023-04-03T13:09:18;5.57;;;2.63;;
23300;SDS011;11819;51.394;12.340;2023-04-03T13:11:46;5.50;;;2.70;;
23300;SDS011;11819;51.394;12.340;2023-04-03T13:14:17;3.97;;;2.22;;
23300;SDS011;11819;51.394;12.340;2023-04-03T13:16:58;5.90;;;2.30;;
23300;SDS011;11819;51.394;12.340;2023-04-03T13:19:29;4.30;;;2.90;;
23300;SDS011;11819;51.394;12.340;2023-04-03T13:21:59;5.70;;;2.58;;
23300;SDS011;11819;51.394;12.340;2023-04-03T13:24:30;3.70;;;2.20;;
23300;SDS011;11819;51.394;12.340;2023-04-03T13:26:59;4.25;;;2.22;;
23300;SDS011;11819;51.394;12.340;2023-04-03T13:29:26;4.40;;;2.53;;
23300;SDS011;11819;51.394;12.340;2023-04-03T13:31:56;5.55;;;2.58;;
23300;SDS011;11819;51.394;12.340;2023-04-03T13:34:24;5.00;;;2.10;;
23300;SDS011;11819;51.394;12.340;2023-04-03T13:39:23;6.40;;;3.90;;
23300;SDS011;11819;51.394;12.340;2023-04-03T13:41:52;3.05;;;2.10;;
23300;SDS011;11819;51.394;12.340;2023-04-03T13:46:51;7.50;;;3.55;;
23300;SDS011;11819;51.394;12.340;2023-04-03T13:49:22;3.28;;;2.60;;
23300;SDS011;11819;51.394;12.340;2023-04-03T13:52:25;7.05;;;3.58;;
23300;SDS011;11819;51.394;12.340;2023-04-03T13:55:03;4.33;;;3.00;;
23300;SDS011;11819;51.394;12.340;2023-04-03T14:00:37;4.22;;;2.78;;
23300;SDS011;11819;51.394;12.340;2023-04-03T14:03:13;3.43;;;2.33;;
23300;SDS011;11819;51.394;12.340;2023-04-03T14:05:44;4.53;;;2.60;;
23300;SDS011;11819;51.394;12.340;2023-04-03T14:08:10;4.07;;;2.63;;
23300;SDS011;11819;51.394;12.340;2023-04-03T14:10:36;6.40;;;2.73;;
23300;SDS011;11819;51.394;12.340;2023-04-03T14:13:02;5.60;;;2.80;;
23300;SDS011;11819;51.394;12.340;2023-04-03T14:15:29;5.30;;;2.23;;
23300;SDS011;11819;51.394;12.340;2023-04-03T14:17:56;4.90;;;2.70;;
23300;SDS011;11819;51.394;12.340;2023-04-03T14:20:24;5.53;;;2.60;;
23300;SDS011;11819;51.394;12.340;2023-04-03T14:22:52;4.43;;;2.20;;
23300;SDS011;11819;51.394;12.340;2023-04-03T14:25:19;6.30;;;2.57;;
23300;SDS011;11819;51.394;12.340;2023-04-03T14:27:48;3.80;;;2.10;;
23300;SDS011;11819;51.394;12.340;2023-04-03T14:30:29;4.07;;;2.30;;
23300;SDS011;11819;51.394;12.340;2023-04-03T14:32:57;3.90;;;2.13;;
23300;SDS011;11819;51.394;12.340;2023-04-03T14:35:24;3.57;;;2.10;;
23300;SDS011;11819;51.394;12.340;2023-04-03T14:37:50;4.37;;;2.17;;
23300;SDS011;11819;51.394;12.340;2023-04-03T14:40:21;5.50;;;2.27;;
23300;SDS011;11819;51.394;12.340;2023-04-03T14:42:50;3.80;;;2.00;;
23300;SDS011;11819;51.394;12.340;2023-04-03T14:45:16;4.30;;;2.37;;
23300;SDS011;11819;51.394;12.340;2023-04-03T14:50:27;4.43;;;1.83;;
23300;SDS011;11819;51.394;12.340;2023-04-03T14:52:55;3.43;;;1.97;;
23300;SDS011;11819;51.394;12.340;2023-04-03T14:55:23;3.83;;;1.75;;
23300;SDS011;11819;51.394;12.340;2023-04-03T14:57:50;2.97;;;1.80;;
23300;SDS011;11819;51.394;12.340;2023-04-03T15:00:17;4.93;;;1.93;;
23300;SDS011;11819;51.394;12.340;2023-04-03T15:02:45;4.30;;;1.97;;
23300;SDS011;11819;51.394;12.340;2023-04-03T15:05:11;3.53;;;2.00;;
23300;SDS011;11819;51.394;12.340;2023-04-03T15:07:39;2.97;;;1.93;;
23300;SDS011;11819;51.394;12.340;2023-04-03T15:10:14;3.47;;;2.10;;
23300;SDS011;11819;51.394;12.340;2023-04-03T15:12:44;5.40;;;2.53;;
23300;SDS011;11819;51.394;12.340;2023-04-03T15:15:12;5.03;;;2.40;;
23300;SDS011;11819;51.394;12.340;2023-04-03T15:17:39;6.10;;;2.80;;
23300;SDS011;11819;51.394;12.340;2023-04-03T15:20:12;7.13;;;2.80;;
23300;SDS011;11819;51.394;12.340;2023-04-03T15:22:38;4.93;;;3.00;;
23300;SDS011;11819;51.394;12.340;2023-04-03T15:25:04;5.20;;;3.00;;
23300;SDS011;11819;51.394;12.340;2023-04-03T15:27:30;5.33;;;3.40;;
23300;SDS011;11819;51.394;12.340;2023-04-03T15:29:56;6.13;;;3.33;;
23300;SDS011;11819;51.394;12.340;2023-04-03T15:32:21;4.97;;;3.07;;
23300;SDS011;11819;51.394;12.340;2023-04-03T15:34:47;6.70;;;3.10;;
23300;SDS011;11819;51.394;12.340;2023-04-03T15:37:13;5.23;;;2.70;;
23300;SDS011;11819;51.394;12.340;2023-04-03T15:39:38;5.23;;;3.10;;
23300;SDS011;11819;51.394;12.340;2023-04-03T15:42:04;5.23;;;3.13;;
23300;SDS011;11819;51.394;12.340;2023-04-03T15:44:35;7.07;;;3.40;;
23300;SDS011;11819;51.394;12.340;2023-04-03T15:47:01;5.20;;;3.43;;
23300;SDS011;11819;51.394;12.340;2023-04-03T15:49:27;6.97;;;3.33;;
23300;SDS011;11819;51.394;12.340;2023-04-03T15:51:53;5.97;;;3.60;;
23300;SDS011;11819;51.394;12.340;2023-04-03T15:54:19;6.17;;;3.80;;
23300;SDS011;11819;51.394;12.340;2023-04-03T15:56:45;5.93;;;3.33;;
23300;SDS011;11819;51.394;12.340;2023-04-03T15:59:11;4.47;;;2.90;;
23300;SDS011;11819;51.394;12.340;2023-04-03T16:01:37;4.53;;;2.90;;
23300;SDS011;11819;51.394;12.340;2023-04-03T16:04:04;3.97;;;2.93;;
23300;SDS011;11819;51.394;12.340;2023-04-03T16:06:32;5.43;;;3.00;;
23300;SDS011;11819;51.394;12.340;2023-04-03T16:08:58;6.20;;;3.13;;
23300;SDS011;11819;51.394;12.340;2023-04-03T16:11:26;3.77;;;2.57;;
23300;SDS011;11819;51.394;12.340;2023-04-03T16:13:53;5.83;;;2.73;;
23300;SDS011;11819;51.394;12.340;2023-04-03T16:16:19;5.20;;;2.97;;
23300;SDS011;11819;51.394;12.340;2023-04-03T16:18:45;5.60;;;2.60;;
23300;SDS011;11819;51.394;12.340;2023-04-03T16:21:11;4.97;;;2.70;;
23300;SDS011;11819;51.394;12.340;2023-04-03T16:23:39;4.63;;;2.93;;
23300;SDS011;11819;51.394;12.340;2023-04-03T16:26:05;4.20;;;2.60;;
23300;SDS011;11819;51.394;12.340;2023-04-03T16:28:31;4.37;;;2.67;;
23300;SDS011;11819;51.394;12.340;2023-04-03T16:30:56;6.07;;;3.17;;
23300;SDS011;11819;51.394;12.340;2023-04-03T16:33:22;5.70;;;3.23;;
23300;SDS011;11819;51.394;12.340;2023-04-03T16:35:49;5.30;;;3.37;;
23300;SDS011;11819;51.394;12.340;2023-04-03T16:38:15;8.40;;;3.50;;
23300;SDS011;11819;51.394;12.340;2023-04-03T16:40:41;6.10;;;3.47;;
23300;SDS011;11819;51.394;12.340;2023-04-03T16:43:07;4.97;;;2.90;;
23300;SDS011;11819;51.394;12.340;2023-04-03T16:45:32;7.47;;;3.33;;
23300;SDS011;11819;51.394;12.340;2023-04-03T16:47:58;4.17;;;2.60;;
23300;SDS011;11819;51.394;12.340;2023-04-03T16:50:24;5.37;;;3.00;;
23300;SDS011;11819;51.394;12.340;2023-04-03T16:52:49;7.50;;;3.00;;
23300;SDS011;11819;51.394;12.340;2023-04-03T16:55:15;6.23;;;2.97;;
23300;SDS011;11819;51.394;12.340;2023-04-03T16:57:41;4.93;;;2.80;;
23300;SDS011;11819;51.394;12.340;2023-04-03T17:00:07;4.57;;;3.00;;